Plentywood (PWD)
Plentywood, MT
Field Elevation: 2251
Lat: 48°47.32N  Long: 104°31.39W
CTAF/Unicom Freq: 122.8000
   
     For Weather-by-Phone, call 406-765-2149
Weather Advisories
2015-05-30   16:17 Z
Altimeter 30.26" Hg
Wind 120° @ 18 KT
Gusts 23 KT
Visibility 10 SM
Temperature 12° C (54° F)
Dewpoint 2° C (36° F)
Relative Humidity 50%
Density Altitude --
Condensation Altitude 7,300 feet
Wind and Runways
Indicated Runway = 12
Headwind = 18 kt
Crosswind = 0 kt
History
 
 
 
More Info
All DigiWx sites map
NOAA Forecast
 
Airport IQ 5010
(S59) Libby
(6S5) Ravalli County
 
about DigiWx
 
FAA Disclaimer: The data displayed is for advisory purposes only and is not to be used for flight planning or operations. For official data, please call 406-765-2149 to hear the current automated AWOS voice message.
  METAR PWD 301617Z AUTO 12018G23KT VIS 10 SM 12/02 A3026